createdAt,value
2022-08-28T00:01:01.394Z,21.70
2022-08-28T00:03:28.731Z,21.67
2022-08-28T00:05:57.610Z,21.63
2022-08-28T00:08:26.868Z,21.60
2022-08-28T00:10:54.540Z,21.56
2022-08-28T00:13:23.337Z,21.50
2022-08-28T00:15:55.026Z,21.44
2022-08-28T00:18:22.558Z,21.41
2022-08-28T00:20:50.835Z,21.39
2022-08-28T00:23:18.416Z,21.34
2022-08-28T00:25:47.510Z,21.31
2022-08-28T00:28:24.375Z,21.29
2022-08-28T00:30:54.568Z,21.25
2022-08-28T00:33:24.137Z,21.18
2022-08-28T00:35:52.024Z,21.17
2022-08-28T00:38:20.396Z,21.15
2022-08-28T00:40:51.417Z,21.13
2022-08-28T00:43:31.766Z,21.09
2022-08-28T00:45:59.022Z,21.06
2022-08-28T00:48:26.184Z,21.03
2022-08-28T00:51:11.950Z,20.99
2022-08-28T00:53:39.197Z,20.92
2022-08-28T00:56:13.206Z,20.87
2022-08-28T00:58:43.556Z,20.84
2022-08-28T01:01:12.396Z,20.82
2022-08-28T01:03:39.957Z,20.80
2022-08-28T01:06:07.833Z,20.80
2022-08-28T01:08:36.747Z,20.79
2022-08-28T01:11:08.032Z,20.78
2022-08-28T01:13:38.121Z,20.75
2022-08-28T01:16:06.457Z,20.77
2022-08-28T01:18:34.891Z,20.77
2022-08-28T01:21:10.721Z,20.74
2022-08-28T01:23:53.393Z,20.68
2022-08-28T01:26:22.123Z,20.67
2022-08-28T01:28:49.254Z,20.64
2022-08-28T01:31:17.316Z,20.65
2022-08-28T01:33:45.737Z,20.63
2022-08-28T01:36:14.154Z,20.56
2022-08-28T01:38:43.510Z,20.56
2022-08-28T01:41:14.094Z,20.53
2022-08-28T01:43:42.912Z,20.50
2022-08-28T01:46:12.311Z,20.47
2022-08-28T01:48:42.593Z,20.43
2022-08-28T01:51:11.402Z,20.38
2022-08-28T01:53:39.195Z,20.33
2022-08-28T01:56:10.953Z,20.32
2022-08-28T01:58:40.747Z,20.27
2022-08-28T02:01:10.644Z,20.21
2022-08-28T02:03:38.348Z,20.19
2022-08-28T02:06:06.279Z,20.19
2022-08-28T02:08:33.437Z,20.17
2022-08-28T02:11:00.769Z,20.13
2022-08-28T02:13:28.345Z,20.08
2022-08-28T02:15:56.888Z,20.05
2022-08-28T02:18:24.739Z,20.06
2022-08-28T02:20:51.902Z,20.04
2022-08-28T02:23:19.518Z,20.01
2022-08-28T02:25:46.702Z,20.00
2022-08-28T02:28:16.983Z,19.95
2022-08-28T02:30:45.184Z,19.87
2022-08-28T02:33:13.745Z,19.83
2022-08-28T02:35:42.896Z,19.78
2022-08-28T02:38:10.415Z,19.76
2022-08-28T02:40:39.084Z,19.74
2022-08-28T02:43:06.238Z,19.77
2022-08-28T02:45:33.755Z,19.78
2022-08-28T02:48:02.011Z,19.75
2022-08-28T02:50:31.530Z,19.73
2022-08-28T02:52:58.870Z,19.72
2022-08-28T02:55:26.204Z,19.70
2022-08-28T02:57:54.728Z,19.71
2022-08-28T03:00:25.482Z,19.67
2022-08-28T03:02:53.797Z,19.62
2022-08-28T03:05:23.453Z,19.62
2022-08-28T03:07:53.472Z,19.61
2022-08-28T03:10:21.698Z,19.62
2022-08-28T03:12:49.384Z,19.59
2022-08-28T03:15:18.083Z,19.55
2022-08-28T03:17:45.638Z,19.50
2022-08-28T03:20:16.472Z,19.46
2022-08-28T03:23:02.519Z,19.42
2022-08-28T03:25:31.209Z,19.41
2022-08-28T03:27:58.421Z,19.39
2022-08-28T03:30:26.048Z,19.40
2022-08-28T03:32:53.957Z,19.38
2022-08-28T03:35:21.937Z,19.36
2022-08-28T03:37:49.237Z,19.37
2022-08-28T03:40:16.846Z,19.33
2022-08-28T03:42:53.646Z,19.35
2022-08-28T03:45:21.409Z,19.36
2022-08-28T03:47:48.769Z,19.33
2022-08-28T03:50:18.639Z,19.31
2022-08-28T03:52:47.518Z,19.30
2022-08-28T03:55:15.237Z,19.31
2022-08-28T03:57:42.356Z,19.31
2022-08-28T04:00:13.332Z,19.26
2022-08-28T04:02:40.718Z,19.29
2022-08-28T04:05:09.500Z,19.29
2022-08-28T04:07:36.730Z,19.35
2022-08-28T04:10:04.637Z,19.39
2022-08-28T04:12:35.230Z,19.41
2022-08-28T04:15:05.647Z,19.47
2022-08-28T04:17:37.653Z,19.50
2022-08-28T04:20:06.766Z,19.56
2022-08-28T04:22:33.962Z,19.61
2022-08-28T04:25:01.357Z,19.69
2022-08-28T04:27:28.590Z,19.74
2022-08-28T04:29:55.833Z,19.80
2022-08-28T04:32:23.749Z,19.87
2022-08-28T04:34:52.329Z,19.96
2022-08-28T04:37:19.518Z,20.07
2022-08-28T04:39:46.622Z,20.17
2022-08-28T04:42:14.409Z,20.26
2022-08-28T04:44:41.564Z,20.38
2022-08-28T04:47:08.686Z,20.50
2022-08-28T04:49:36.077Z,20.60
2022-08-28T04:52:05.345Z,20.75
2022-08-28T04:54:32.800Z,20.89
2022-08-28T04:57:00.328Z,21.05
2022-08-28T04:59:27.573Z,21.20
2022-08-28T05:01:54.933Z,21.30
2022-08-28T05:04:22.606Z,21.47
2022-08-28T05:06:49.729Z,21.66
2022-08-28T05:09:20.247Z,21.81
2022-08-28T05:11:48.575Z,21.97
2022-08-28T05:14:16.562Z,22.16
2022-08-28T05:16:47.786Z,22.38
2022-08-28T05:19:15.554Z,22.54
2022-08-28T05:21:42.741Z,22.68
2022-08-28T05:24:10.833Z,22.85
2022-08-28T05:26:40.262Z,23.06
2022-08-28T05:29:08.124Z,23.27
2022-08-28T05:31:35.448Z,23.52
2022-08-28T05:34:04.518Z,23.77
2022-08-28T05:36:35.790Z,24.01
2022-08-28T05:39:05.986Z,24.20
2022-08-28T05:41:34.341Z,24.40
2022-08-28T05:44:05.011Z,24.60
2022-08-28T05:46:32.593Z,24.80
2022-08-28T05:49:00.550Z,24.99
2022-08-28T05:51:28.103Z,25.13
2022-08-28T05:53:57.808Z,25.30
2022-08-28T05:56:29.876Z,25.49
2022-08-28T05:58:57.744Z,25.71
2022-08-28T06:01:28.727Z,25.95
2022-08-28T06:03:58.123Z,26.14
2022-08-28T06:06:27.049Z,26.13
2022-08-28T06:08:59.062Z,26.18
2022-08-28T06:11:27.345Z,26.34
2022-08-28T06:14:02.455Z,26.48
2022-08-28T06:16:32.527Z,26.69
2022-08-28T06:19:00.580Z,26.85
2022-08-28T06:21:28.274Z,27.04
2022-08-28T06:23:56.108Z,27.25
2022-08-28T06:26:23.790Z,27.45
2022-08-28T06:28:53.123Z,27.74
2022-08-28T06:31:24.723Z,27.95
2022-08-28T06:33:55.594Z,28.17
2022-08-28T06:36:23.446Z,28.24
2022-08-28T06:38:51.235Z,28.44
2022-08-28T06:41:19.310Z,28.62
2022-08-28T06:43:46.577Z,28.83
2022-08-28T06:46:13.805Z,29.01
2022-08-28T06:48:40.988Z,29.25
2022-08-28T06:51:11.297Z,29.55
2022-08-28T06:53:40.118Z,29.71
2022-08-28T06:56:09.818Z,29.86
2022-08-28T06:58:38.956Z,30.03
2022-08-28T07:01:10.406Z,30.14
2022-08-28T07:03:42.557Z,30.18
2022-08-28T07:06:14.508Z,30.22
2022-08-28T07:08:42.954Z,30.35
2022-08-28T07:11:13.311Z,30.59
2022-08-28T07:13:40.975Z,30.77
2022-08-28T07:16:09.408Z,30.93
2022-08-28T07:18:37.117Z,31.14
2022-08-28T07:21:07.067Z,31.31
2022-08-28T07:23:38.502Z,31.37
2022-08-28T07:26:07.744Z,31.49
2022-08-28T07:28:35.452Z,31.64
2022-08-28T07:31:05.094Z,31.94
2022-08-28T07:33:33.499Z,32.21
2022-08-28T07:36:01.613Z,32.46
2022-08-28T07:38:29.143Z,32.78
2022-08-28T07:40:57.730Z,33.13
2022-08-28T07:43:43.251Z,33.36
2022-08-28T07:46:14.218Z,33.51
2022-08-28T07:48:42.308Z,33.54
2022-08-28T07:51:10.387Z,33.68
2022-08-28T07:53:37.623Z,33.81
2022-08-28T07:56:07.338Z,33.93
2022-08-28T07:58:34.545Z,34.07
2022-08-28T08:01:01.832Z,34.29
2022-08-28T08:03:31.150Z,34.60
2022-08-28T08:06:02.253Z,34.87
2022-08-28T08:08:31.814Z,35.03
2022-08-28T08:11:00.826Z,35.14
2022-08-28T08:13:30.236Z,35.35
2022-08-28T08:16:01.956Z,35.70
2022-08-28T08:18:29.322Z,35.98
2022-08-28T08:20:56.638Z,36.17
2022-08-28T08:23:24.258Z,36.28
2022-08-28T08:25:56.153Z,36.44
2022-08-28T08:28:23.806Z,36.67
2022-08-28T08:31:03.453Z,36.92
2022-08-28T08:33:31.830Z,37.09
2022-08-28T08:35:59.048Z,37.23
2022-08-28T08:38:28.252Z,37.35
2022-08-28T08:40:55.669Z,37.61
2022-08-28T08:43:25.365Z,37.89
2022-08-28T08:45:54.075Z,38.08
2022-08-28T08:48:27.766Z,38.04
2022-08-28T08:50:57.587Z,38.08
2022-08-28T08:53:32.068Z,38.29
2022-08-28T08:56:00.212Z,38.52
2022-08-28T08:58:31.779Z,38.59
2022-08-28T09:01:07.697Z,38.70
2022-08-28T09:03:49.527Z,38.85
2022-08-28T09:06:27.373Z,39.04
2022-08-28T09:08:58.877Z,39.21
2022-08-28T09:11:34.425Z,39.38
2022-08-28T09:14:10.650Z,39.46
2022-08-28T09:16:42.682Z,39.49
2022-08-28T09:19:15.168Z,39.46
2022-08-28T09:21:44.832Z,39.51
2022-08-28T09:24:19.767Z,39.60
2022-08-28T09:26:52.666Z,39.59
2022-08-28T09:29:25.325Z,39.51
2022-08-28T09:31:54.105Z,39.38
2022-08-28T09:34:24.833Z,39.45
2022-08-28T09:36:52.923Z,39.59
2022-08-28T09:39:22.275Z,39.73
2022-08-28T09:42:12.374Z,39.71
2022-08-28T09:44:59.834Z,39.58
2022-08-28T09:47:46.263Z,39.26
2022-08-28T09:50:33.084Z,39.15
2022-08-28T09:53:15.617Z,39.11
2022-08-28T09:56:00.760Z,38.86
2022-08-28T09:58:34.102Z,38.70
2022-08-28T10:01:10.651Z,38.80
2022-08-28T10:03:46.714Z,39.15
2022-08-28T10:06:19.063Z,39.43
2022-08-28T10:08:56.505Z,39.26
2022-08-28T10:11:32.966Z,39.12
2022-08-28T10:14:15.053Z,38.91
2022-08-28T10:16:51.218Z,38.93
2022-08-28T10:19:36.195Z,39.21
2022-08-28T10:22:18.440Z,39.36
2022-08-28T10:24:58.056Z,39.63
2022-08-28T10:27:37.686Z,39.95
2022-08-28T10:30:13.317Z,40.31
2022-08-28T10:32:51.658Z,40.35
2022-08-28T10:35:23.000Z,40.34
2022-08-28T10:37:57.502Z,40.45
2022-08-28T10:40:28.544Z,40.55
2022-08-28T10:43:02.234Z,40.59
2022-08-28T10:45:32.124Z,40.74
2022-08-28T10:48:05.242Z,40.98
2022-08-28T10:50:42.173Z,41.16
2022-08-28T10:53:14.681Z,41.27
2022-08-28T10:55:52.014Z,41.20
2022-08-28T10:58:24.776Z,41.31
2022-08-28T11:00:55.337Z,41.18
2022-08-28T11:03:39.835Z,40.95
2022-08-28T11:06:14.287Z,41.13
2022-08-28T11:08:41.941Z,40.93
2022-08-28T11:11:15.033Z,40.89
2022-08-28T11:13:52.172Z,40.89
2022-08-28T11:16:23.031Z,41.13
2022-08-28T11:19:16.118Z,41.33
2022-08-28T11:21:49.156Z,41.42
2022-08-28T11:24:30.423Z,41.53
2022-08-28T11:27:06.139Z,41.39
2022-08-28T11:30:00.161Z,40.95
2022-08-28T11:32:37.278Z,40.92
2022-08-28T11:35:27.409Z,41.19
2022-08-28T11:37:57.649Z,41.45
2022-08-28T11:40:56.567Z,41.69
2022-08-28T11:43:38.389Z,41.84
2022-08-28T11:46:12.016Z,41.90
2022-08-28T11:48:48.433Z,42.06
2022-08-28T11:51:35.351Z,41.97
2022-08-28T11:54:20.057Z,41.55
2022-08-28T11:57:01.214Z,41.09
2022-08-28T12:00:03.133Z,40.97
2022-08-28T12:02:54.333Z,41.21
2022-08-28T12:05:45.213Z,41.39
2022-08-28T12:08:33.880Z,41.46
2022-08-28T12:11:02.650Z,41.64
2022-08-28T12:13:47.274Z,41.86
2022-08-28T12:16:15.759Z,41.90
2022-08-28T12:19:04.165Z,41.87
2022-08-28T12:21:38.849Z,41.98
2022-08-28T12:24:16.178Z,42.05
2022-08-28T12:26:50.166Z,42.10
2022-08-28T12:29:21.837Z,42.14
2022-08-28T12:32:28.642Z,42.03
2022-08-28T12:35:17.787Z,41.96
2022-08-28T12:37:58.798Z,41.99
2022-08-28T12:40:29.080Z,42.05
2022-08-28T12:43:00.331Z,41.92
2022-08-28T12:45:30.806Z,41.93
2022-08-28T12:48:02.911Z,41.89
2022-08-28T12:50:34.172Z,41.80
2022-08-28T12:53:04.376Z,41.88
2022-08-28T12:55:31.853Z,41.94
2022-08-28T12:58:00.890Z,41.86
2022-08-28T13:00:33.314Z,41.71
2022-08-28T13:03:02.042Z,41.64
2022-08-28T13:05:33.072Z,41.58
2022-08-28T13:08:03.408Z,41.46
2022-08-28T13:10:34.258Z,41.44
2022-08-28T13:13:06.493Z,41.54
2022-08-28T13:15:55.437Z,41.63
2022-08-28T13:18:45.655Z,41.66
2022-08-28T13:21:32.896Z,41.67
2022-08-28T13:24:23.638Z,41.40
2022-08-28T13:27:01.082Z,40.93
2022-08-28T13:29:30.237Z,40.41
2022-08-28T13:31:59.935Z,39.95
2022-08-28T13:34:29.280Z,39.70
2022-08-28T13:37:00.400Z,39.43
2022-08-28T13:39:29.751Z,39.20
2022-08-28T13:42:05.077Z,39.04
2022-08-28T13:44:35.480Z,38.85
2022-08-28T13:47:06.833Z,38.77
2022-08-28T13:49:34.714Z,38.83
2022-08-28T13:52:05.771Z,38.95
2022-08-28T13:54:34.599Z,39.07
2022-08-28T13:57:03.693Z,39.15
2022-08-28T13:59:33.312Z,39.07
2022-08-28T14:02:24.206Z,38.80
2022-08-28T14:04:51.854Z,38.68
2022-08-28T14:07:19.161Z,38.54
2022-08-28T14:09:46.669Z,38.38
2022-08-28T14:12:13.903Z,38.20
2022-08-28T14:14:43.164Z,38.23
2022-08-28T14:17:10.588Z,38.43
2022-08-28T14:19:38.120Z,38.47
2022-08-28T14:22:05.417Z,38.55
2022-08-28T14:24:32.745Z,38.67
2022-08-28T14:27:00.004Z,38.64
2022-08-28T14:29:27.195Z,38.48
2022-08-28T14:31:55.946Z,38.25
2022-08-28T14:34:23.457Z,38.05
2022-08-28T14:36:55.067Z,38.09
2022-08-28T14:39:25.127Z,38.17
2022-08-28T14:41:53.391Z,38.05
2022-08-28T14:44:21.781Z,38.01
2022-08-28T14:46:54.217Z,38.05
2022-08-28T14:49:26.806Z,38.03
2022-08-28T14:51:55.018Z,38.00
2022-08-28T14:54:24.522Z,37.93
2022-08-28T14:56:52.623Z,37.87
2022-08-28T14:59:24.260Z,37.83
2022-08-28T15:01:53.069Z,37.83
2022-08-28T15:04:23.548Z,37.75
2022-08-28T15:06:57.477Z,37.61
2022-08-28T15:09:24.813Z,37.58
2022-08-28T15:11:52.030Z,37.46
2022-08-28T15:14:20.924Z,37.40
2022-08-28T15:16:49.614Z,37.34
2022-08-28T15:19:18.051Z,37.23
2022-08-28T15:21:47.547Z,37.04
2022-08-28T15:24:18.430Z,36.93
2022-08-28T15:26:46.895Z,36.82
2022-08-28T15:29:14.671Z,36.74
2022-08-28T15:31:44.475Z,36.65
2022-08-28T15:34:15.291Z,36.53
2022-08-28T15:36:54.720Z,36.41
2022-08-28T15:39:42.644Z,36.30
2022-08-28T15:42:11.430Z,36.14
2022-08-28T15:44:39.029Z,36.02
2022-08-28T15:47:07.437Z,35.90
2022-08-28T15:49:43.503Z,35.82
2022-08-28T15:52:14.450Z,35.72
2022-08-28T15:54:43.284Z,35.61
2022-08-28T15:57:10.485Z,35.53
2022-08-28T15:59:49.451Z,35.40
2022-08-28T16:02:18.642Z,35.26
2022-08-28T16:04:46.298Z,35.18
2022-08-28T16:07:13.431Z,35.06
2022-08-28T16:09:45.420Z,34.95
2022-08-28T16:12:12.658Z,34.87
2022-08-28T16:14:40.345Z,34.78
2022-08-28T16:17:10.694Z,34.68
2022-08-28T16:19:39.916Z,34.57
2022-08-28T16:22:07.542Z,34.49
2022-08-28T16:24:34.859Z,34.40
2022-08-28T16:27:04.453Z,34.30
2022-08-28T16:29:33.890Z,34.17
2022-08-28T16:32:01.095Z,34.05
2022-08-28T16:34:31.471Z,33.92
2022-08-28T16:36:59.302Z,33.79
2022-08-28T16:39:26.980Z,33.65
2022-08-28T16:41:54.167Z,33.51
2022-08-28T16:44:28.022Z,33.37
2022-08-28T16:46:55.831Z,33.24
2022-08-28T16:49:23.815Z,33.08
2022-08-28T16:51:51.596Z,32.95
2022-08-28T16:54:19.193Z,32.83
2022-08-28T16:56:46.547Z,32.68
2022-08-28T16:59:16.599Z,32.57
2022-08-28T17:01:45.672Z,32.39
2022-08-28T17:04:20.517Z,32.20
2022-08-28T17:06:47.650Z,32.08
2022-08-28T17:09:14.841Z,31.96
2022-08-28T17:11:42.160Z,31.81
2022-08-28T17:14:12.098Z,31.70
2022-08-28T17:16:39.775Z,31.57
2022-08-28T17:19:08.343Z,31.42
2022-08-28T17:21:54.361Z,31.29
2022-08-28T17:24:21.662Z,31.15
2022-08-28T17:26:48.822Z,31.07
2022-08-28T17:29:16.223Z,30.96
2022-08-28T17:31:43.991Z,30.83
2022-08-28T17:34:12.774Z,30.70
2022-08-28T17:36:42.175Z,30.55
2022-08-28T17:39:13.158Z,30.43
2022-08-28T17:41:41.405Z,30.33
2022-08-28T17:44:08.860Z,30.22
2022-08-28T17:46:37.911Z,30.12
2022-08-28T17:49:07.146Z,30.05
2022-08-28T17:51:43.554Z,29.93
2022-08-28T17:54:12.526Z,29.82
2022-08-28T17:56:40.317Z,29.73
2022-08-28T17:59:07.854Z,29.63
2022-08-28T18:01:36.252Z,29.47
2022-08-28T18:04:05.185Z,29.35
2022-08-28T18:06:32.623Z,29.24
2022-08-28T18:09:01.215Z,29.13
2022-08-28T18:11:28.578Z,29.02
2022-08-28T18:13:55.781Z,28.96
2022-08-28T18:16:26.476Z,28.88
2022-08-28T18:18:57.087Z,28.78
2022-08-28T18:21:24.868Z,28.68
2022-08-28T18:23:52.095Z,28.60
2022-08-28T18:26:20.685Z,28.53
2022-08-28T18:28:47.945Z,28.48
2022-08-28T18:31:15.365Z,28.46
2022-08-28T18:33:42.685Z,28.42
2022-08-28T18:36:11.316Z,28.34
2022-08-28T18:38:39.096Z,28.27
2022-08-28T18:41:07.257Z,28.18
2022-08-28T18:43:36.612Z,28.11
2022-08-28T18:46:05.396Z,28.05
2022-08-28T18:48:33.030Z,28.00
2022-08-28T18:51:00.291Z,27.92
2022-08-28T18:53:28.898Z,27.85
2022-08-28T18:55:56.238Z,27.77
2022-08-28T18:58:27.452Z,27.72
2022-08-28T19:00:56.065Z,27.64
2022-08-28T19:03:23.300Z,27.55
2022-08-28T19:05:51.928Z,27.38
2022-08-28T19:08:19.080Z,27.25
2022-08-28T19:10:46.764Z,27.11
2022-08-28T19:13:13.917Z,26.88
2022-08-28T19:15:41.471Z,26.79
2022-08-28T19:18:10.062Z,26.53
2022-08-28T19:20:37.774Z,26.35
2022-08-28T19:23:04.918Z,26.29
2022-08-28T19:25:32.403Z,26.19
2022-08-28T19:28:01.641Z,25.97
2022-08-28T19:30:32.936Z,25.93
2022-08-28T19:33:00.836Z,25.95
2022-08-28T19:35:29.553Z,25.99
2022-08-28T19:37:56.705Z,26.00
2022-08-28T19:40:23.969Z,26.05
2022-08-28T19:42:51.705Z,26.09
2022-08-28T19:45:20.135Z,26.12
2022-08-28T19:47:47.661Z,26.12
2022-08-28T19:50:15.593Z,26.06
2022-08-28T19:52:45.126Z,26.05
2022-08-28T19:55:16.581Z,26.06
2022-08-28T19:57:44.486Z,26.03
2022-08-28T20:00:15.211Z,26.01
2022-08-28T20:02:42.518Z,26.01
2022-08-28T20:05:10.704Z,26.00
2022-08-28T20:07:38.021Z,25.97
2022-08-28T20:10:07.498Z,25.90
2022-08-28T20:12:34.838Z,25.84
2022-08-28T20:15:04.256Z,25.81
2022-08-28T20:17:31.545Z,25.77
2022-08-28T20:20:02.311Z,25.72
2022-08-28T20:22:32.062Z,25.70
2022-08-28T20:24:59.457Z,25.58
2022-08-28T20:27:28.289Z,25.46
2022-08-28T20:29:56.185Z,25.42
2022-08-28T20:32:23.423Z,25.32
2022-08-28T20:34:50.569Z,25.27
2022-08-28T20:37:19.075Z,25.20
2022-08-28T20:39:47.360Z,25.16
2022-08-28T20:42:14.555Z,25.08
2022-08-28T20:44:43.144Z,25.01
2022-08-28T20:47:10.281Z,24.92
2022-08-28T20:49:39.427Z,24.78
2022-08-28T20:52:06.856Z,24.70
2022-08-28T20:54:37.346Z,24.66
2022-08-28T20:57:07.820Z,24.63
2022-08-28T20:59:40.062Z,24.60
2022-08-28T21:02:11.568Z,24.53
2022-08-28T21:04:40.865Z,24.52
2022-08-28T21:07:08.790Z,24.52
2022-08-28T21:09:53.739Z,24.46
2022-08-28T21:12:23.855Z,24.40
2022-08-28T21:14:53.011Z,24.34
2022-08-28T21:17:29.796Z,24.31
2022-08-28T21:20:00.141Z,24.30
2022-08-28T21:22:29.007Z,24.24
2022-08-28T21:24:56.154Z,24.17
2022-08-28T21:27:23.331Z,24.07
2022-08-28T21:29:50.724Z,23.98
2022-08-28T21:32:18.061Z,23.89
2022-08-28T21:34:46.638Z,23.88
2022-08-28T21:37:13.874Z,23.87
2022-08-28T21:39:41.060Z,23.90
2022-08-28T21:42:08.208Z,23.89
2022-08-28T21:44:35.398Z,23.87
2022-08-28T21:47:02.521Z,23.80
2022-08-28T21:49:29.739Z,23.78
2022-08-28T21:52:01.158Z,23.71
2022-08-28T21:54:28.459Z,23.65
2022-08-28T21:56:58.659Z,23.58
2022-08-28T21:59:28.519Z,23.55
2022-08-28T22:02:05.049Z,23.49
2022-08-28T22:04:32.290Z,23.40
2022-08-28T22:07:00.927Z,23.35
2022-08-28T22:09:28.984Z,23.26
2022-08-28T22:11:56.218Z,23.18
2022-08-28T22:14:25.188Z,23.14
2022-08-28T22:16:52.593Z,23.11
2022-08-28T22:19:20.010Z,23.09
2022-08-28T22:22:05.416Z,23.01
2022-08-28T22:24:34.293Z,22.96
2022-08-28T22:27:01.420Z,22.92
2022-08-28T22:29:36.257Z,22.88
2022-08-28T22:32:03.344Z,22.84
2022-08-28T22:34:30.633Z,22.76
2022-08-28T22:36:57.833Z,22.74
2022-08-28T22:39:24.978Z,22.67
2022-08-28T22:41:53.469Z,22.58
2022-08-28T22:44:20.677Z,22.51
2022-08-28T22:46:47.923Z,22.45
2022-08-28T22:49:16.398Z,22.43
2022-08-28T22:51:43.590Z,22.41
2022-08-28T22:54:10.879Z,22.40
2022-08-28T22:56:38.057Z,22.39
2022-08-28T22:59:06.656Z,22.37
2022-08-28T23:01:35.188Z,22.38
2022-08-28T23:04:02.997Z,22.34
2022-08-28T23:06:30.612Z,22.29
2022-08-28T23:08:57.821Z,22.27
2022-08-28T23:11:25.197Z,22.22
2022-08-28T23:13:52.329Z,22.14
2022-08-28T23:16:24.025Z,22.11
2022-08-28T23:19:08.664Z,22.10
2022-08-28T23:21:43.558Z,22.05
2022-08-28T23:24:12.194Z,22.02
2022-08-28T23:26:39.451Z,22.01
2022-08-28T23:29:06.582Z,22.00
2022-08-28T23:31:35.742Z,21.96
2022-08-28T23:34:03.737Z,21.94
2022-08-28T23:36:32.542Z,21.93
2022-08-28T23:39:03.118Z,21.91
2022-08-28T23:41:30.681Z,21.89
2022-08-28T23:43:57.785Z,21.88
2022-08-28T23:46:25.673Z,21.85
2022-08-28T23:48:54.403Z,21.82
2022-08-28T23:51:22.128Z,21.80
2022-08-28T23:53:49.992Z,21.77
2022-08-28T23:56:17.313Z,21.75
2022-08-28T23:58:45.629Z,21.75
